createdAt,value
2022-11-14T00:04:51.681Z,998.09
2022-11-14T00:09:55.828Z,998.14
2022-11-14T00:15:00.215Z,998.08
2022-11-14T00:20:04.148Z,998.11
2022-11-14T00:25:08.354Z,998.17
2022-11-14T00:30:12.508Z,998.04
2022-11-14T00:35:16.679Z,998.03
2022-11-14T00:40:20.812Z,998.01
2022-11-14T00:45:24.964Z,997.93
2022-11-14T00:50:29.139Z,997.94
2022-11-14T00:55:33.307Z,997.88
2022-11-14T01:00:37.541Z,997.80
2022-11-14T01:05:41.644Z,997.75
2022-11-14T01:10:45.801Z,997.75
2022-11-14T01:15:49.988Z,997.70
2022-11-14T01:20:54.172Z,997.61
2022-11-14T01:25:58.303Z,997.44
2022-11-14T01:31:02.476Z,997.43
2022-11-14T01:36:06.625Z,997.11
2022-11-14T01:41:10.787Z,996.55
2022-11-14T01:46:14.981Z,996.37
2022-11-14T01:51:19.118Z,996.32
2022-11-14T01:56:23.310Z,996.23
2022-11-14T02:01:27.495Z,996.29
2022-11-14T02:06:31.649Z,996.18
2022-11-14T02:11:35.819Z,996.16
2022-11-14T02:16:39.948Z,996.11
2022-11-14T02:21:44.112Z,996.19
2022-11-14T02:26:48.281Z,996.05
2022-11-14T02:31:52.480Z,995.98
2022-11-14T02:36:54.710Z,995.93
2022-11-14T02:41:58.899Z,995.93
2022-11-14T02:47:03.057Z,995.94
2022-11-14T02:52:07.236Z,995.88
2022-11-14T02:57:11.405Z,995.85
2022-11-14T03:02:15.540Z,995.83
2022-11-14T03:07:17.871Z,995.78
2022-11-14T03:12:21.969Z,995.90
2022-11-14T03:17:26.157Z,995.89
2022-11-14T03:22:30.324Z,995.75
2022-11-14T03:27:34.484Z,995.69
2022-11-14T03:32:38.633Z,995.65
2022-11-14T03:37:42.796Z,995.64
2022-11-14T03:42:46.955Z,995.60
2022-11-14T03:47:51.125Z,995.65
2022-11-14T03:52:55.312Z,995.65
2022-11-14T03:57:59.472Z,995.54
2022-11-14T04:03:03.625Z,995.55
2022-11-14T04:08:07.813Z,995.43
2022-11-14T04:13:11.988Z,995.22
2022-11-14T04:18:16.128Z,995.27
2022-11-14T04:23:20.313Z,995.29
2022-11-14T04:28:24.469Z,995.34
2022-11-14T04:33:28.653Z,995.31
2022-11-14T04:38:33.141Z,995.32
2022-11-14T04:43:36.971Z,995.33
2022-11-14T04:48:41.148Z,995.31
2022-11-14T04:53:45.306Z,995.26
2022-11-14T04:58:49.423Z,995.20
2022-11-14T05:03:53.607Z,995.22
2022-11-14T05:08:57.809Z,995.10
2022-11-14T05:14:01.951Z,995.00
2022-11-14T05:19:06.123Z,995.06
2022-11-14T05:24:10.260Z,995.08
2022-11-14T05:29:14.416Z,995.06
2022-11-14T05:34:18.620Z,994.96
2022-11-14T05:39:22.761Z,994.89
2022-11-14T05:44:26.954Z,994.92
2022-11-14T05:49:31.108Z,994.86
2022-11-14T05:54:35.298Z,994.84
2022-11-14T05:59:39.444Z,994.90
2022-11-14T06:04:43.580Z,994.89
2022-11-14T06:09:47.770Z,994.87
2022-11-14T06:19:56.092Z,994.90
2022-11-14T06:25:00.295Z,994.79
2022-11-14T06:30:04.446Z,994.77
2022-11-14T06:35:08.605Z,994.88
2022-11-14T06:40:12.767Z,994.85
2022-11-14T06:45:16.922Z,994.94
2022-11-14T06:50:21.124Z,994.99
2022-11-14T06:55:25.760Z,994.82
2022-11-14T07:00:29.432Z,994.88
2022-11-14T07:05:33.584Z,994.97
2022-11-14T07:10:37.784Z,994.98
2022-11-14T07:15:41.941Z,994.79
2022-11-14T07:20:46.092Z,994.79
2022-11-14T07:25:50.269Z,994.77
2022-11-14T07:30:54.444Z,994.74
2022-11-14T07:35:58.576Z,994.65
2022-11-14T07:41:02.749Z,994.62
2022-11-14T07:46:06.907Z,994.71
2022-11-14T07:51:11.103Z,994.60
2022-11-14T07:56:15.250Z,994.65
2022-11-14T08:01:19.479Z,994.60
2022-11-14T08:06:23.568Z,994.53
2022-11-14T08:11:35.146Z,994.58
2022-11-14T08:16:31.936Z,994.49
2022-11-14T08:21:36.124Z,994.46
2022-11-14T08:26:40.206Z,994.31
2022-11-14T08:31:44.407Z,994.23
2022-11-14T08:36:46.643Z,994.03
2022-11-14T08:41:50.901Z,994.05
2022-11-14T08:46:54.974Z,993.96
2022-11-14T08:51:59.159Z,994.01
2022-11-14T08:57:03.346Z,993.91
2022-11-14T09:02:07.576Z,993.83
2022-11-14T09:07:11.674Z,993.86
2022-11-14T09:12:15.841Z,993.84
2022-11-14T09:17:20.026Z,993.75
2022-11-14T09:22:24.130Z,993.61
2022-11-14T09:27:28.291Z,993.49
2022-11-14T09:32:32.482Z,993.18
2022-11-14T09:37:36.646Z,993.08
2022-11-14T09:42:40.815Z,992.87
2022-11-14T09:47:44.973Z,992.80
2022-11-14T09:52:49.124Z,992.66
2022-11-14T09:57:53.299Z,992.39
2022-11-14T10:02:57.459Z,992.37
2022-11-14T10:08:01.626Z,992.63
2022-11-14T10:13:05.808Z,993.08
2022-11-14T10:18:09.960Z,993.77
2022-11-14T10:23:14.122Z,994.57
2022-11-14T10:28:18.267Z,995.18
2022-11-14T10:33:22.442Z,995.74
2022-11-14T10:38:26.604Z,996.16
2022-11-14T10:43:30.758Z,996.32
2022-11-14T10:48:34.917Z,996.54
2022-11-14T10:53:39.084Z,996.69
2022-11-14T10:58:48.983Z,996.62
2022-11-14T11:03:47.462Z,996.65
2022-11-14T11:08:51.828Z,996.55
2022-11-14T11:13:55.739Z,996.47
2022-11-14T11:18:59.871Z,996.61
2022-11-14T11:24:04.153Z,996.71
2022-11-14T11:29:08.222Z,996.61
2022-11-14T11:34:12.376Z,996.83
2022-11-14T11:39:16.550Z,996.78
2022-11-14T11:44:20.726Z,996.66
2022-11-14T11:49:24.842Z,996.98
2022-11-14T11:54:29.023Z,997.16
2022-11-14T11:59:33.159Z,997.18
2022-11-14T12:04:37.340Z,997.01
2022-11-14T12:10:08.748Z,997.24
2022-11-14T12:14:45.659Z,997.43
2022-11-14T12:19:49.849Z,997.30
2022-11-14T12:24:53.988Z,997.22
2022-11-14T12:29:58.169Z,997.20
2022-11-14T12:35:02.443Z,997.05
2022-11-14T12:40:06.459Z,996.98
2022-11-14T12:45:10.636Z,996.95
2022-11-14T12:50:14.775Z,996.88
2022-11-14T12:55:18.998Z,997.01
2022-11-14T13:00:23.125Z,996.95
2022-11-14T13:05:27.282Z,996.78
2022-11-14T13:10:31.426Z,996.35
2022-11-14T13:15:35.618Z,996.13
2022-11-14T13:20:39.763Z,996.19
2022-11-14T13:25:43.919Z,996.23
2022-11-14T13:30:48.123Z,996.30
2022-11-14T13:35:52.240Z,996.36
2022-11-14T13:40:56.403Z,996.38
2022-11-14T13:46:00.557Z,996.32
2022-11-14T13:51:21.927Z,996.00
2022-11-14T13:56:08.897Z,996.05
2022-11-14T14:01:13.409Z,995.98
2022-11-14T14:06:15.312Z,995.76
2022-11-14T14:11:19.624Z,995.85
2022-11-14T14:16:23.690Z,995.82
2022-11-14T14:21:27.809Z,996.04
2022-11-14T14:26:31.980Z,996.06
2022-11-14T14:31:36.119Z,996.26
2022-11-14T14:36:40.282Z,996.18
2022-11-14T14:41:44.448Z,996.15
2022-11-14T14:46:48.602Z,996.42
2022-11-14T14:51:57.242Z,996.37
2022-11-14T14:56:56.926Z,996.26
2022-11-14T15:02:01.153Z,996.16
2022-11-14T15:07:05.389Z,995.98
2022-11-14T15:12:09.404Z,995.73
2022-11-14T15:17:13.608Z,995.69
2022-11-14T15:22:17.769Z,995.52
2022-11-14T15:27:21.918Z,995.45
2022-11-14T15:32:26.073Z,995.30
2022-11-14T15:37:30.223Z,995.23
2022-11-14T15:42:34.419Z,995.31
2022-11-14T15:47:38.555Z,995.33
2022-11-14T15:52:42.732Z,995.49
2022-11-14T15:57:55.867Z,995.35
2022-11-14T16:02:51.016Z,995.15
2022-11-14T16:07:55.217Z,995.19
2022-11-14T16:12:59.509Z,995.12
2022-11-14T16:18:03.496Z,995.08
2022-11-14T16:23:07.688Z,994.97
2022-11-14T16:28:11.853Z,994.86
2022-11-14T16:33:16.028Z,994.65
2022-11-14T16:38:20.217Z,994.57
2022-11-14T16:43:24.319Z,994.45
2022-11-14T16:48:28.481Z,994.35
2022-11-14T16:53:33.089Z,994.13
2022-11-14T16:58:36.799Z,994.07
2022-11-14T17:03:40.972Z,994.02
2022-11-14T17:08:45.243Z,993.79
2022-11-14T17:13:49.298Z,993.76
2022-11-14T17:18:53.485Z,993.67
2022-11-14T17:23:57.646Z,993.64
2022-11-14T17:29:01.808Z,993.52
2022-11-14T17:34:05.966Z,993.39
2022-11-14T17:39:10.101Z,993.32
2022-11-14T17:44:14.310Z,993.29
2022-11-14T17:49:18.464Z,993.28
2022-11-14T17:54:22.605Z,993.09
2022-11-14T17:59:26.768Z,993.25
2022-11-14T18:04:30.931Z,993.31
2022-11-14T18:09:35.140Z,993.42
2022-11-14T18:14:39.247Z,993.43
2022-11-14T18:19:43.438Z,993.43
2022-11-14T18:24:47.582Z,993.50
2022-11-14T18:29:51.744Z,993.47
2022-11-14T18:34:55.925Z,993.51
2022-11-14T18:40:00.062Z,993.53
2022-11-14T18:45:04.240Z,993.58
2022-11-14T18:50:08.379Z,993.57
2022-11-14T18:55:12.560Z,993.50
2022-11-14T19:00:16.785Z,993.49
2022-11-14T19:05:20.905Z,993.66
2022-11-14T19:10:25.124Z,993.85
2022-11-14T19:15:29.229Z,994.00
2022-11-14T19:20:33.373Z,994.24
2022-11-14T19:25:38.186Z,994.25
2022-11-14T19:30:41.711Z,994.45
2022-11-14T19:35:43.990Z,994.56
2022-11-14T19:40:48.156Z,994.57
2022-11-14T19:45:52.303Z,994.57
2022-11-14T19:50:56.445Z,994.68
2022-11-14T19:56:00.602Z,994.56
2022-11-14T20:01:04.841Z,994.45
2022-11-14T20:06:07.057Z,994.31
2022-11-14T20:11:11.206Z,994.32
2022-11-14T20:16:15.369Z,994.23
2022-11-14T20:21:19.525Z,994.20
2022-11-14T20:26:23.676Z,994.16
2022-11-14T20:31:27.825Z,994.15
2022-11-14T20:36:43.907Z,994.17
2022-11-14T20:41:36.187Z,993.98
2022-11-14T20:46:40.333Z,993.88
2022-11-14T20:51:44.462Z,993.68
2022-11-14T20:56:48.647Z,993.60
2022-11-14T21:01:52.832Z,993.53
2022-11-14T21:06:57.045Z,993.52
2022-11-14T21:12:01.136Z,993.59
2022-11-14T21:17:05.303Z,993.55
2022-11-14T21:22:09.495Z,993.51
2022-11-14T21:27:13.648Z,993.31
2022-11-14T21:32:17.805Z,993.02
2022-11-14T21:37:21.932Z,992.93
2022-11-14T21:42:26.095Z,992.85
2022-11-14T21:47:30.358Z,992.84
2022-11-14T21:52:34.461Z,992.85
2022-11-14T21:57:38.583Z,992.84
2022-11-14T22:02:42.744Z,992.71
2022-11-14T22:07:46.925Z,992.68
2022-11-14T22:12:51.051Z,992.70
2022-11-14T22:17:55.263Z,992.55
2022-11-14T22:22:59.412Z,992.50
2022-11-14T22:28:03.566Z,992.41
2022-11-14T22:33:07.729Z,992.39
2022-11-14T22:38:11.883Z,992.28
2022-11-14T22:43:16.046Z,992.19
2022-11-14T22:48:20.237Z,992.03
2022-11-14T22:53:24.360Z,991.90
2022-11-14T22:58:28.564Z,991.92
2022-11-14T23:03:32.890Z,991.97
2022-11-14T23:08:36.972Z,991.98
2022-11-14T23:13:41.031Z,991.93
2022-11-14T23:18:45.176Z,991.89
2022-11-14T23:23:49.370Z,991.94
2022-11-14T23:28:53.521Z,991.80
2022-11-14T23:33:57.650Z,991.75
2022-11-14T23:39:01.851Z,991.56
2022-11-14T23:44:06.011Z,991.29
2022-11-14T23:49:10.153Z,991.02
2022-11-14T23:54:14.329Z,990.82
2022-11-14T23:59:18.473Z,990.70
